Flight Track Log - Related Links

Times and Time Zones

All times are in EDT time to prevent confusion due to time zone crossing. See the UPS2774 flight status page for this flight to view local times or setup timezone preferences in your user account.

Time Position Orientation Groundspeed Altitude Reporting Facility
EDT Latitude Longitude Course Direction KTS MPH feet Rate Location/Type
Wed 04:46:11 PM 38.1660 -85.7420 15° North 120 138  Level FlightAware ADS-B
Wed 04:46:36 PM 38.1850 -85.7480 346° North 162 186 1,300 2,800 Climbing FlightAware ADS-B
Wed 04:46:56 PM 38.2000 -85.7540 343° North 182 209 2,100 2,000 Climbing FlightAware ADS-B
Wed 04:47:06 PM 38.2080 -85.7580 339° North 198 228 2,300 1,600 Climbing FlightAware ADS-B
Wed 04:47:26 PM 38.2260 -85.7720 329° Northwest 226 260 2,900 2,250 Climbing FlightAware ADS-B
Wed 04:47:46 PM 38.2450 -85.7850 332° Northwest 237 273 3,800 2,813 Climbing FlightAware ADS-B
Wed 04:47:58 PM 38.2560 -85.7930 330° Northwest 241 277 4,400 2,786 Climbing FlightAware ADS-B
Wed 04:48:14 PM 38.2700 -85.8080 320° Northwest 253 291 5,100 2,750 Climbing FlightAware ADS-B
Wed 04:48:22 PM 38.2740 -85.8180 297° West 257 296 5,500 3,000 Climbing FlightAware ADS-B
Wed 04:48:26 PM 38.2760 -85.8250 290° West 257 296 5,700 3,000 Climbing FlightAware ADS-B
Wed 04:48:30 PM 38.2760 -85.8310 270° West 256 295 5,900 3,158 Climbing FlightAware ADS-B
Wed 04:49:04 PM 38.2730 -85.8810 266° West 255 293 7,700 3,158 Climbing FlightAware ADS-B
Wed 04:49:08 PM 38.2710 -85.8860 243° Southwest 257 296 7,900 3,500 Climbing FlightAware ADS-B
Wed 04:49:16 PM 38.2650 -85.8970 235° Southwest 259 298 8,400 3,000 Climbing FlightAware ADS-B
Wed 04:49:24 PM 38.2580 -85.9060 225° Southwest 265 305 8,700 2,143 Climbing FlightAware ADS-B
Wed 04:49:44 PM 38.2400 -85.9270 223° Southwest 281 323 9,400 3,107 Climbing FlightAware ADS-B
Wed 04:50:20 PM 38.2030 -85.9680 221° Southwest 298 343 11,600 3,667 Climbing FlightAware ADS-B
Wed 04:50:56 PM 38.1650 -86.0110 222° Southwest 308 354 13,800 3,514 Climbing FlightAware ADS-B
Wed 04:51:30 PM 38.1270 -86.0520 220° Southwest 319 367 15,700 3,273 Climbing FlightAware ADS-B
Wed 04:52:02 PM 38.0920 -86.0920 222° Southwest 326 375 17,400 2,357 Climbing FlightAware ADS-B
Wed 04:52:26 PM 38.0780 -86.1330 247° West 345 397 17,900 1,600 Climbing FlightAware ADS-B
Wed 04:53:02 PM 38.0640 -86.2110 257° West 384 442 19,000 2,294 Climbing FlightAware ADS-B
Wed 04:53:34 PM 38.0520 -86.2770 257° West 389 448 20,500 2,906 Climbing FlightAware ADS-B
Wed 04:54:06 PM 38.0450 -86.3460 263° West 391 450 22,100 2,833 Climbing FlightAware ADS-B
Wed 04:54:46 PM 38.0390 -86.4440 266° West 404 465 23,900 2,526 Climbing FlightAware ADS-B
Wed 04:55:22 PM 38.0290 -86.5310 262° West 420 483 25,300 2,400 Climbing FlightAware ADS-B
Wed 04:55:46 PM 38.0080 -86.5830 243° Southwest 431 496 26,300 2,082 Climbing FlightAware ADS-B
Wed 04:56:11 PM 37.9790 -86.6230 227° Southwest 446 513 27,000 2,149 Climbing FlightAware ADS-B
Wed 04:56:53 PM 37.9060 -86.7120 224° Southwest 467 537 28,700 2,160 Climbing FlightAware ADS-B
Wed 04:57:26 PM 37.8530 -86.7730 222° Southwest 475 547 29,700 2,060 Climbing FlightAware ADS-B
Wed 04:58:00 PM 37.7980 -86.8380 223° Southwest 476 548 31,000 2,250 Climbing FlightAware ADS-B
Wed 04:58:38 PM 37.7370 -86.9100 223° Southwest 473 544 32,400 2,160 Climbing FlightAware ADS-B
Wed 04:58:50 PM 37.7160 -86.9310 218° Southwest 481 554 32,800 1,837 Climbing FlightAware ADS-B
Wed 04:59:27 PM 37.6490 -86.9870 214° Southwest 478 550 33,900 1,043 Climbing FlightAware ADS-B
Wed 04:59:59 PM 37.5840 -87.0270 206° Southwest 492 566 34,000 88 Climbing FlightAware ADS-B
Wed 05:00:35 PM 37.5110 -87.0690 205° Southwest 493 567 34,000  Level FlightAware ADS-B
Wed 05:01:12 PM 37.4340 -87.1130 204° Southwest 492 566 34,000  Level FlightAware ADS-B
Wed 05:01:45 PM 37.3640 -87.1530 204° Southwest 489 563 34,000  Level FlightAware ADS-B
Wed 05:02:22 PM 37.2870 -87.1980 205° Southwest 488 562 34,000  Level FlightAware ADS-B
Wed 05:02:57 PM 37.2200 -87.2430 208° Southwest 479 551 34,000  Level FlightAware ADS-B
Wed 05:03:30 PM 37.1620 -87.3000 218° Southwest 468 539 34,000  Level FlightAware ADS-B
Wed 05:04:06 PM 37.1080 -87.3690 226° Southwest 464 534 34,000  Level FlightAware ADS-B
Wed 05:04:42 PM 37.0540 -87.4390 226° Southwest 463 533 34,000  Level FlightAware ADS-B
Wed 05:05:15 PM 37.0060 -87.5020 226° Southwest 462 532 34,000  Level FlightAware ADS-B
Wed 05:05:50 PM 36.9540 -87.5700 226° Southwest 461 531 34,000  Level FlightAware ADS-B
Wed 05:06:27 PM 36.8990 -87.6400 226° Southwest 461 531 34,000  Level FlightAware ADS-B
Wed 05:06:59 PM 36.8530 -87.7010 227° Southwest 461 531 34,000  Level FlightAware ADS-B
Wed 05:07:34 PM 36.7990 -87.7690 225° Southwest 462 532 34,000  Level FlightAware ADS-B
Wed 05:08:10 PM 36.7460 -87.8370 226° Southwest 463 533 34,000  Level FlightAware ADS-B
Wed 05:08:48 PM 36.6890 -87.9110 226° Southwest 463 533 34,000  Level FlightAware ADS-B
Wed 05:09:21 PM 36.6430 -87.9700 226° Southwest 464 534 34,000  Level FlightAware ADS-B
Wed 05:09:56 PM 36.5870 -88.0400 225° Southwest 464 534 34,000  Level FlightAware ADS-B
Wed 05:10:32 PM 36.5330 -88.1090 226° Southwest 466 536 34,000  Level FlightAware ADS-B
Wed 05:11:04 PM 36.4870 -88.1670 225° Southwest 466 536 34,000  Level FlightAware ADS-B
Wed 05:11:42 PM 36.4270 -88.2440 226° Southwest 467 537 34,000  Level FlightAware ADS-B
Wed 05:12:31 PM 36.3600 -88.3280 225° Southwest 468 539 34,000  Level FlightAware ADS-B
Wed 05:13:08 PM 36.3120 -88.3880 225° Southwest 468 539 34,000  Level FlightAware ADS-B
Wed 05:13:52 PM 36.2370 -88.4830 226° Southwest 469 540 34,000  Level FlightAware ADS-B
Wed 05:14:31 PM 36.1720 -88.5650 226° Southwest 470 541 34,000  Level FlightAware ADS-B
Wed 05:15:01 PM 36.1250 -88.6230 225° Southwest 470 541 34,000  Level FlightAware ADS-B
Wed 05:15:38 PM 36.0690 -88.6940 226° Southwest 472 543 34,000  Level FlightAware ADS-B
Wed 05:16:15 PM 36.0110 -88.7660 225° Southwest 472 543 34,000  Level FlightAware ADS-B
Wed 05:16:47 PM 35.9620 -88.8270 225° Southwest 472 543 34,000  Level FlightAware ADS-B
Wed 05:17:22 PM 35.9080 -88.8940 225° Southwest 472 543 34,000  Level FlightAware ADS-B
Wed 05:17:55 PM 35.8570 -88.9570 225° Southwest 471 542 34,000  Level FlightAware ADS-B
Wed 05:18:32 PM 35.8090 -89.0170 225° Southwest 471 542 34,000  Level FlightAware ADS-B
Wed 05:19:09 PM 35.7600 -89.0760 224° Southwest 471 542 34,000  Level FlightAware ADS-B
Wed 05:19:44 PM 35.6900 -89.1630 225° Southwest 469 540 34,000  Level FlightAware ADS-B
Wed 05:20:20 PM 35.6360 -89.2290 225° Southwest 468 539 34,000  Level FlightAware ADS-B
Wed 05:20:52 PM 35.5860 -89.2910 225° Southwest 468 539 34,000  Level FlightAware ADS-B
Wed 05:21:26 PM 35.5330 -89.3560 225° Southwest 467 537 34,000  Level FlightAware ADS-B
Wed 05:22:03 PM 35.4780 -89.4240 225° Southwest 465 535 34,000  Level FlightAware ADS-B
Wed 05:22:40 PM 35.4200 -89.4930 224° Southwest 464 534 34,000  Level FlightAware ADS-B
Wed 05:23:19 PM 35.3630 -89.5630 225° Southwest 463 533 34,000  Level FlightAware ADS-B
Wed 05:23:54 PM 35.3100 -89.6270 225° Southwest 461 531 34,000  Level FlightAware ADS-B
Wed 05:24:38 PM 35.2500 -89.6990 224° Southwest 462 532 34,000  Level FlightAware ADS-B
Wed 05:25:13 PM 35.1900 -89.7720 225° Southwest 461 531 34,000  Level FlightAware ADS-B
Wed 05:25:47 PM 35.1360 -89.8370 225° Southwest 461 531 34,000  Level FlightAware ADS-B
Wed 05:26:22 PM 35.0830 -89.9010 225° Southwest 461 531 34,000  Level FlightAware ADS-B
Wed 05:27:03 PM 35.0200 -89.9750 224° Southwest 463 533 34,000  Level FlightAware ADS-B
Wed 05:27:38 PM 34.9620 -90.0330 219° Southwest 468 539 34,000  Level FlightAware ADS-B
Wed 05:28:12 PM 34.9030 -90.0870 217° Southwest 469 540 34,000  Level FlightAware ADS-B
Wed 05:28:49 PM 34.8380 -90.1470 217° Southwest 470 541 34,000  Level FlightAware ADS-B
Wed 05:29:24 PM 34.7770 -90.2030 217° Southwest 470 541 34,000  Level FlightAware ADS-B
Wed 05:29:56 PM 34.7220 -90.2530 217° Southwest 470 541 34,000  Level FlightAware ADS-B
Wed 05:30:37 PM 34.6500 -90.3190 217° Southwest 470 541 34,000  Level FlightAware ADS-B
Wed 05:31:07 PM 34.6000 -90.3660 218° Southwest 470 541 34,000  Level FlightAware ADS-B
Wed 05:31:47 PM 34.5300 -90.4290 217° Southwest 470 541 34,000  Level FlightAware ADS-B
Wed 05:32:23 PM 34.4660 -90.4870 217° Southwest 470 541 34,000  Level FlightAware ADS-B
Wed 05:32:54 PM 34.4130 -90.5360 217° Southwest 471 542 34,000  Level FlightAware ADS-B
Wed 05:33:31 PM 34.3500 -90.5930 217° Southwest 472 543 34,000  Level FlightAware ADS-B
Wed 05:34:08 PM 34.2920 -90.6450 217° Southwest 472 543 34,000  Level FlightAware ADS-B
Wed 05:34:36 PM 34.2350 -90.6980 218° Southwest 473 544 34,000  Level FlightAware ADS-B
Wed 05:35:24 PM 34.1510 -90.7730 216° Southwest 475 547 34,000  Level FlightAware ADS-B
Wed 05:36:05 PM 34.0890 -90.8280 216° Southwest 474 545 34,000  Level FlightAware ADS-B
Wed 05:36:41 PM 34.0340 -90.8760 216° Southwest 474 545 34,000  Level FlightAware ADS-B
Wed 05:37:15 PM 33.9830 -90.9210 216° Southwest 474 545 34,000  Level FlightAware ADS-B
Wed 05:37:51 PM 33.9290 -90.9680 216° Southwest 474 545 34,000  Level FlightAware ADS-B
Wed 05:38:27 PM 33.8740 -91.0160 216° Southwest 474 545 34,000  Level FlightAware ADS-B
Wed 05:39:15 PM 33.8020 -91.0790 216° Southwest 474 545 34,000  Level FlightAware ADS-B
Wed 05:39:51 PM 33.7480 -91.1270 216° Southwest 474 545 34,000  Level FlightAware ADS-B
Wed 05:40:27 PM 33.6930 -91.1740 215° Southwest 474 545 34,000  Level FlightAware ADS-B
Wed 05:41:03 PM 33.6390 -91.2210 216° Southwest 474 545 34,000  Level FlightAware ADS-B
Wed 05:41:39 PM 33.5850 -91.2690 217° Southwest 474 545 34,000  Level FlightAware ADS-B
Wed 05:42:16 PM 33.5290 -91.3170 216° Southwest 474 545 34,000  Level FlightAware ADS-B
Wed 05:42:52 PM 33.4750 -91.3650 217° Southwest 474 545 34,000  Level FlightAware ADS-B
Wed 05:43:28 PM 33.4210 -91.4120 216° Southwest 474 545 34,000  Level FlightAware ADS-B
Wed 05:44:04 PM 33.3660 -91.4590 216° Southwest 474 545 34,000  Level FlightAware ADS-B
Wed 05:44:40 PM 33.3120 -91.5060 216° Southwest 474 545 34,000  Level FlightAware ADS-B
Wed 05:45:17 PM 33.2560 -91.5550 216° Southwest 474 545 34,000  Level FlightAware ADS-B
Wed 05:46:05 PM 32.9644 -91.6103 216° Southwest 468 539 34,000  Level Fort Worth Center
Wed 05:47:05 PM 32.8711 -91.7128 223° Southwest 468 539 34,000  Level Fort Worth Center
Wed 05:48:05 PM 32.7778 -91.8175 223° Southwest 468 539 34,000  Level Fort Worth Center
Wed 05:49:05 PM 32.6819 -91.9172 221° Southwest 468 539 34,000  Level Fort Worth Center
Wed 05:51:24 PM 32.4689 -92.1458 222° Southwest 460 529 34,000  Level Houston Center
Wed 05:52:26 PM 32.3553 -92.2683 222° Southwest 461 531 34,000  Level Houston Center
Wed 05:53:28 PM 32.2606 -92.3700 222° Southwest 461 531 34,000  Level Houston Center
Wed 05:54:30 PM 32.1656 -92.4717 222° Southwest 461 531 34,000  Level Houston Center
Wed 05:59:54 PM 31.6264 -93.0127 222° Southwest 462 532 34,000  Level FlightAware ADS-B
Wed 06:00:24 PM 31.5765 -93.0607 219° Southwest 463 533 34,000  Level FlightAware ADS-B
Wed 06:01:19 PM 31.4844 -93.1494 219° Southwest 464 534 34,000  Level FlightAware ADS-B
Wed 06:01:50 PM 31.4331 -93.1985 219° Southwest 465 535 34,000  Level FlightAware ADS-B
Wed 06:02:23 PM 31.3788 -93.2506 219° Southwest 465 535 34,000  Level FlightAware ADS-B
Wed 06:02:54 PM 31.3265 -93.3005 219° Southwest 466 536 34,000  Level FlightAware ADS-B
Wed 06:03:25 PM 31.2754 -93.3492 219° Southwest 465 535 34,000  Level FlightAware ADS-B
Wed 06:03:56 PM 31.2242 -93.3981 219° Southwest 465 535 34,000 -286 Level FlightAware ADS-B
Wed 06:04:28 PM 31.1711 -93.4487 219° Southwest 465 535 33,700 -871 Descending FlightAware ADS-B
Wed 06:04:58 PM 31.1208 -93.4965 219° Southwest 467 537 33,100 -1,300 Descending FlightAware ADS-B
Wed 06:05:28 PM 31.0695 -93.5450 219° Southwest 464 534 32,400 -2,361 Descending FlightAware ADS-B
Wed 06:05:59 PM 31.0186 -93.5935 219° Southwest 467 537 30,700 -2,710 Descending FlightAware ADS-B
Wed 06:06:30 PM 30.9664 -93.6427 219° Southwest 464 534 29,600 -2,364 Descending FlightAware ADS-B
Wed 06:06:32 PM 30.9611 -93.6479 220° Southwest 462 532 29,400 -2,200 Descending FlightAware ADS-B
Wed 06:07:00 PM 30.9159 -93.6906 219° Southwest 455 524 28,500 -1,941 Descending FlightAware ADS-B
Wed 06:07:06 PM 30.9052 -93.7008 219° Southwest 453 521 28,300 -2,250 Descending FlightAware ADS-B
Wed 06:07:24 PM 30.8773 -93.7269 219° Southwest 450 518 27,600 -2,200 Descending FlightAware ADS-B
Wed 06:07:36 PM 30.8573 -93.7459 219° Southwest 447 514 27,200 -1,935 Descending FlightAware ADS-B
Wed 06:07:55 PM 30.8277 -93.7734 219° Southwest 442 509 26,600 -2,250 Descending FlightAware ADS-B
Wed 06:08:08 PM 30.8070 -93.7932 219° Southwest 436 502 26,000 -2,000 Descending FlightAware ADS-B
Wed 06:08:25 PM 30.7806 -93.8181 219° Southwest 432 497 25,600 -1,787 Descending FlightAware ADS-B
Wed 06:08:55 PM 30.7343 -93.8616 219° Southwest 426 490 24,600 -2,066 Descending FlightAware ADS-B
Wed 06:09:26 PM 30.6876 -93.9054 219° Southwest 422 486 23,500 -1,967 Descending FlightAware ADS-B
Wed 06:09:56 PM 30.6426 -93.9477 219° Southwest 412 474 22,600 -1,967 Descending FlightAware ADS-B
Wed 06:10:27 PM 30.5973 -93.9901 219° Southwest 407 468 21,500 -1,967 Descending FlightAware ADS-B
Wed 06:10:57 PM 30.5538 -94.0307 219° Southwest 395 455 20,600 -2,459 Descending FlightAware ADS-B
Wed 06:11:28 PM 30.5098 -94.0718 219° Southwest 398 458 19,000 -2,483 Descending FlightAware ADS-B
Wed 06:11:55 PM 30.4712 -94.1080 219° Southwest 379 436 18,200 -1,742 Descending FlightAware ADS-B
Wed 06:11:59 PM 30.4659 -94.1129 219° Southwest 377 434 18,100 -2,400 Descending FlightAware ADS-B
Wed 06:12:30 PM 30.4253 -94.1507 219° Southwest 368 423 16,800 -2,656 Descending FlightAware ADS-B
Wed 06:13:00 PM 30.3851 -94.1885 219° Southwest 366 421 15,400 -2,647 Descending FlightAware ADS-B
Wed 06:13:04 PM 30.3801 -94.1935 221° Southwest 365 420 15,300 -1,333 Descending FlightAware ADS-B
Wed 06:13:09 PM 30.3742 -94.2003 225° Southwest 363 418 15,200 -1,385 Descending FlightAware ADS-B
Wed 06:13:17 PM 30.3654 -94.2124 230° Southwest 361 415 15,000 -1,556 Descending FlightAware ADS-B
Wed 06:13:36 PM 30.3466 -94.2418 233° Southwest 356 410 14,500 -1,440 Descending FlightAware ADS-B
Wed 06:14:07 PM 30.3205 -94.2908 238° Southwest 347 399 13,800 -1,475 Descending FlightAware ADS-B
Wed 06:14:37 PM 30.2954 -94.3387 239° Southwest 339 390 13,000 -1,592 Descending FlightAware ADS-B
Wed 06:14:56 PM 30.2808 -94.3664 239° Southwest 336 387 12,500 -1,355 Descending FlightAware ADS-B
Wed 06:15:08 PM 30.2709 -94.3854 239° Southwest 333 383 12,300 -774 Descending FlightAware ADS-B
Wed 06:15:27 PM 30.2563 -94.4137 239° Southwest 331 381 12,100 -400 Descending FlightAware ADS-B
Wed 06:15:38 PM 30.2473 -94.4310 239° Southwest 332 382 12,100 150 Level FlightAware ADS-B
Wed 06:16:07 PM 30.2266 -94.4709 239° Southwest 335 386 12,200  Climbing FlightAware ADS-B
Wed 06:16:08 PM 30.2233 -94.4771 239° Southwest 334 384 12,100 -182 Descending FlightAware ADS-B
Wed 06:16:40 PM 30.1981 -94.5252 239° Southwest 334 384 12,100  Level FlightAware ADS-B
Wed 06:17:10 PM 30.1741 -94.5711 239° Southwest 333 383 12,100 -182 Level FlightAware ADS-B
Wed 06:17:13 PM 30.1710 -94.5771 239° Southwest 332 382 12,000 -800 Descending FlightAware ADS-B
Wed 06:17:40 PM 30.1507 -94.6159 239° Southwest 318 366 11,700 -727 Descending FlightAware ADS-B
Wed 06:17:46 PM 30.1476 -94.6216 238° Southwest 315 362 11,600 -1,000 Descending FlightAware ADS-B
Wed 06:18:10 PM 30.1280 -94.6587 239° Southwest 306 352 11,200 -1,111 Descending FlightAware ADS-B
Wed 06:18:40 PM 30.1062 -94.7004 239° Southwest 301 346 10,600 -1,180 Descending FlightAware ADS-B
Wed 06:19:11 PM 30.0846 -94.7415 239° Southwest 293 337 10,000 -1,135 Descending FlightAware ADS-B
Wed 06:19:17 PM 30.0801 -94.7502 239° Southwest 292 336 9,900 -1,200 Descending FlightAware ADS-B
Wed 06:19:26 PM 30.0741 -94.7616 239° Southwest 290 334 9,700 -1,200 Descending FlightAware ADS-B
Wed 06:19:37 PM 30.0661 -94.7766 238° Southwest 288 331 9,500 -1,200 Descending FlightAware ADS-B
Wed 06:19:41 PM 30.0633 -94.7819 239° Southwest 288 331 9,400 -1,200 Descending FlightAware ADS-B
Wed 06:19:57 PM 30.0526 -94.8023 239° Southwest 286 329 9,100 -1,565 Descending FlightAware ADS-B
Wed 06:20:04 PM 30.0470 -94.8127 238° Southwest 286 329 8,800 -1,600 Descending FlightAware ADS-B
Wed 06:20:12 PM 30.0421 -94.8222 239° Southwest 286 329 8,700 -1,091 Descending FlightAware ADS-B
Wed 06:20:26 PM 30.0374 -94.8312 239° Southwest 286 329 8,400 -1,500 Descending FlightAware ADS-B
Wed 06:20:28 PM 30.0312 -94.8428 239° Southwest 286 329 8,300 -1,059 Descending FlightAware ADS-B
Wed 06:20:43 PM 30.0210 -94.8623 239° Southwest 282 325 8,100 -400 Descending FlightAware ADS-B
Wed 06:20:58 PM 30.0110 -94.8812 239° Southwest 275 316 8,100 -621 Level FlightAware ADS-B
Wed 06:21:12 PM 30.0018 -94.8989 239° Southwest 272 313 7,800 -1,333 Descending FlightAware ADS-B
Wed 06:21:16 PM 29.9993 -94.9045 243° Southwest 271 312 7,700 -857 Descending FlightAware ADS-B
Wed 06:21:19 PM 29.9977 -94.9085 245° Southwest 270 311 7,700 -857 Level FlightAware ADS-B
Wed 06:21:23 PM 29.9964 -94.9133 253° West 269 310 7,600 -1,714 Descending FlightAware ADS-B
Wed 06:21:26 PM 29.9954 -94.9172 254° West 270 311 7,500 -2,000 Descending FlightAware ADS-B
Wed 06:21:29 PM 29.9944 -94.9221 257° West 269 310 7,400 -1,714 Descending FlightAware ADS-B
Wed 06:21:33 PM 29.9938 -94.9273 262° West 269 310 7,300 -857 Descending FlightAware ADS-B
Wed 06:21:36 PM 29.9934 -94.9322 265° West 268 308 7,300 -750 Level FlightAware ADS-B
Wed 06:21:41 PM 29.9933 -94.9385 269° West 267 307 7,200 -1,200 Descending FlightAware ADS-B
Wed 06:21:56 PM 29.9932 -94.9599 270° West 263 303 6,900 -1,333 Descending FlightAware ADS-B
Wed 06:22:08 PM 29.9932 -94.9758 270° West 258 297 6,600 -1,714 Descending FlightAware ADS-B
Wed 06:22:17 PM 29.9932 -94.9853 270° West 256 295 6,300 -1,846 Descending FlightAware ADS-B
Wed 06:22:21 PM 29.9933 -94.9947 270° West 255 293 6,200 -2,211 Descending FlightAware ADS-B
Wed 06:22:36 PM 29.9933 -95.0119 270° West 254 292 5,600 -2,118 Descending FlightAware ADS-B
Wed 06:22:38 PM 29.9933 -95.0169 270° West 254 292 5,600 -2,000 Level FlightAware ADS-B
Wed 06:22:51 PM 29.9933 -95.0342 270° West 253 291 5,100 -2,333 Descending FlightAware ADS-B
Wed 06:22:56 PM 29.9933 -95.0419 270° West 253 291 4,900 -1,600 Descending FlightAware ADS-B
Wed 06:23:06 PM 29.9933 -95.0545 270° West 253 291 4,700 -1,429 Descending FlightAware ADS-B
Wed 06:23:17 PM 29.9933 -95.0705 270° West 250 288 4,400 -1,200 Descending FlightAware ADS-B
Wed 06:23:21 PM 29.9933 -95.0750 270° West 250 288 4,400 -1,200 Level FlightAware ADS-B
Wed 06:23:37 PM 29.9934 -95.0955 270° West 243 280 4,000 -1,355 Descending FlightAware ADS-B
Wed 06:23:52 PM 29.9933 -95.1149 270° West 239 275 3,700 -1,263 Descending FlightAware ADS-B
Wed 06:23:56 PM 29.9933 -95.1214 270° West 239 275 3,600 -1,200 Descending FlightAware ADS-B
Wed 06:24:07 PM 29.9934 -95.1338 270° West 234 269 3,400 -1,143 Descending FlightAware ADS-B
Wed 06:24:17 PM 29.9934 -95.1438 270° West 228 262 3,200 -1,200 Descending FlightAware ADS-B
Wed 06:24:22 PM 29.9935 -95.1521 271° West 224 258 3,100 -1,091 Descending FlightAware ADS-B
Wed 06:24:28 PM 29.9935 -95.1595 270° West 219 252 3,000 -1,125 Descending FlightAware ADS-B
Wed 06:24:38 PM 29.9935 -95.1706 270° West 209 241 2,800 -1,077 Descending FlightAware ADS-B
Wed 06:25:07 PM 29.9935 -95.2005 270° West 185 213 2,300 -955 Descending FlightAware ADS-B
Wed 06:25:22 PM 29.9934 -95.2143 270° West 164 189 2,100 -900 Descending FlightAware ADS-B
Wed 06:25:27 PM 29.9935 -95.2107 89° East 157 181 2,000 -1,125 Descending FlightAware ADS-B
Wed 06:25:38 PM 29.9935 -95.2276 270° West 149 171 1,800 -947 Descending FlightAware ADS-B
Wed 06:25:46 PM 29.9935 -95.2341 270° West 148 170 1,700 -667 Descending FlightAware ADS-B
Wed 06:25:56 PM 29.9935 -95.2416 270° West 149 171 1,600 -600 Descending FlightAware ADS-B
Wed 06:26:06 PM 29.9935 -95.2493 270° West 148 170 1,500 -800 Descending FlightAware ADS-B
Wed 06:26:11 PM 29.9935 -95.2538 271° West 146 168 1,400 -632 Descending FlightAware ADS-B
Wed 06:26:25 PM 29.9935 -95.2647 270° West 147 169 1,300 -800 Descending FlightAware ADS-B
Wed 06:26:26 PM 29.9935 -95.2647 270° West 147 169 1,200 -1,200 Descending FlightAware ADS-B
Wed 06:26:35 PM 29.9935 -95.2726 270° West 148 170 1,100 -667 Descending FlightAware ADS-B
Wed 06:26:44 PM 29.9935 -95.2797 270° West 150 173 1,000 -600 Descending FlightAware ADS-B
Wed 06:26:45 PM 29.9935 -95.2804 266° West 150 173 1,000 -500 Level FlightAware ADS-B
Wed 06:26:56 PM 29.9935 -95.2893 270° West 149 171 900 -667 Descending FlightAware ADS-B
Wed 06:27:12 PM 29.9935 -95.3020 270° West 146 168 700 -750 Descending FlightAware ADS-B
Wed 06:27:20 PM 29.9935 -95.3076 270° West 145 167 600 -783 Descending FlightAware ADS-B
Wed 06:27:35 PM 29.9935 -95.3198 270° West 147 169 400 -800 Descending FlightAware ADS-B

Login

Don't have an account? Register now (free) for customized features, flight alerts, and more!